createdAt,value
2022-12-31T00:30:08.239Z,996.13
2022-12-31T00:30:48.828Z,996.17
2022-12-31T00:31:29.248Z,996.18
2022-12-31T00:32:09.686Z,996.16
2022-12-31T00:32:50.138Z,996.16
2022-12-31T00:33:30.640Z,996.11
2022-12-31T00:34:11.090Z,996.14
2022-12-31T00:34:51.585Z,996.19
2022-12-31T00:35:32.094Z,996.22
2022-12-31T00:36:12.559Z,996.14
2022-12-31T00:36:53.058Z,996.2
2022-12-31T00:37:33.556Z,996.24
2022-12-31T00:38:14.040Z,996.23
2022-12-31T00:39:35.004Z,996.27
2022-12-31T00:40:15.501Z,996.1
2022-12-31T00:40:56.005Z,996.19
2022-12-31T00:41:36.502Z,996.23
2022-12-31T00:42:17.044Z,996.16
2022-12-31T00:42:57.515Z,996.16
2022-12-31T00:43:38.016Z,996.09
2022-12-31T00:44:18.482Z,996.19
2022-12-31T00:44:58.978Z,996.12
2022-12-31T00:45:39.502Z,996.03
2022-12-31T00:46:20.015Z,996.11
2022-12-31T00:47:00.449Z,996.15
2022-12-31T00:47:40.899Z,996.12
2022-12-31T00:48:21.395Z,996.15
2022-12-31T00:49:01.866Z,996.09
2022-12-31T00:49:42.367Z,996.09
2022-12-31T00:50:22.845Z,996.09
2022-12-31T00:51:03.336Z,996.07
2022-12-31T00:51:43.818Z,996.13
2022-12-31T00:52:24.352Z,996.06
2022-12-31T00:53:04.863Z,996.04
2022-12-31T00:53:45.371Z,996.02
2022-12-31T00:54:25.881Z,995.98
2022-12-31T00:55:06.372Z,996.07
2022-12-31T00:55:46.874Z,996.07
2022-12-31T00:57:07.886Z,996.07
2022-12-31T00:57:48.404Z,996.11
2022-12-31T00:58:28.909Z,996.08
2022-12-31T00:59:09.394Z,996.11
2022-12-31T00:59:49.862Z,996.12
2022-12-31T01:00:30.387Z,996.13
2022-12-31T01:01:11.067Z,996.17
2022-12-31T01:01:51.409Z,996.13
2022-12-31T01:02:31.967Z,996.08
2022-12-31T01:03:12.360Z,996.05
2022-12-31T01:03:52.801Z,996.07
2022-12-31T01:04:33.253Z,996.16
2022-12-31T01:05:13.800Z,996.07
2022-12-31T01:05:54.286Z,996.07
2022-12-31T01:06:34.798Z,996.08
2022-12-31T01:07:15.307Z,996.11
2022-12-31T01:07:55.799Z,996.16
2022-12-31T01:08:36.296Z,995.96
2022-12-31T01:09:16.786Z,996.03
2022-12-31T01:09:57.309Z,996.01
2022-12-31T01:10:37.824Z,996.04
2022-12-31T01:11:18.295Z,996.16
2022-12-31T01:11:58.769Z,996.05
2022-12-31T01:12:39.287Z,996.08
2022-12-31T01:13:19.788Z,996.18
2022-12-31T01:14:00.303Z,996.18
2022-12-31T01:14:40.773Z,996.11
2022-12-31T01:15:21.291Z,996.16
2022-12-31T01:16:01.825Z,996.12
2022-12-31T01:16:42.349Z,996.02
2022-12-31T01:17:22.802Z,996.22
2022-12-31T01:18:03.277Z,996.15
2022-12-31T01:18:43.779Z,996.07
2022-12-31T01:20:05.560Z,996.1
2022-12-31T01:20:46.746Z,996.21
2022-12-31T01:21:26.566Z,996.14
2022-12-31T01:22:07.087Z,996.17
2022-12-31T01:22:47.592Z,996.18
2022-12-31T01:23:28.075Z,996.14
2022-12-31T01:24:08.627Z,996.14
2022-12-31T01:24:49.136Z,996.1
2022-12-31T01:25:29.616Z,996.07
2022-12-31T01:26:10.088Z,996.11
2022-12-31T01:26:50.566Z,996
2022-12-31T01:27:31.045Z,995.91
2022-12-31T01:28:11.531Z,996
2022-12-31T01:28:52.042Z,995.97
2022-12-31T01:30:13.008Z,996.05
2022-12-31T01:30:53.536Z,996.06
2022-12-31T01:31:33.990Z,996.13
2022-12-31T01:32:14.492Z,996.22
2022-12-31T01:32:54.983Z,996.06
2022-12-31T01:33:35.539Z,996.07
2022-12-31T01:34:16.032Z,996.12
2022-12-31T01:34:56.501Z,996.1
2022-12-31T01:35:37.005Z,996.15
2022-12-31T01:36:21.823Z,996.01
2022-12-31T01:36:58.042Z,996.02
2022-12-31T01:37:38.546Z,996.08
2022-12-31T01:38:19.014Z,996.29
2022-12-31T01:38:59.523Z,996.18
2022-12-31T01:39:40.039Z,996.22
2022-12-31T01:40:20.507Z,996.32
2022-12-31T01:41:00.973Z,996.36
2022-12-31T01:41:41.479Z,996.29
2022-12-31T01:42:22.004Z,996.26
2022-12-31T01:43:02.527Z,996.22
2022-12-31T01:43:43.001Z,996.35
2022-12-31T01:44:23.500Z,996.29
2022-12-31T01:45:03.983Z,996.33
2022-12-31T01:45:44.468Z,996.3
2022-12-31T01:46:25.021Z,996.38
2022-12-31T01:47:05.467Z,996.34
2022-12-31T01:47:45.976Z,996.57
2022-12-31T01:48:26.454Z,996.39
2022-12-31T01:49:06.979Z,996.26
2022-12-31T01:49:47.493Z,996.26
2022-12-31T01:50:27.988Z,996.14
2022-12-31T01:51:08.468Z,996.28
2022-12-31T01:51:48.983Z,996.28
2022-12-31T01:52:29.481Z,996.41
2022-12-31T01:53:10.012Z,996.33
2022-12-31T01:53:50.486Z,996.28
2022-12-31T01:54:30.987Z,996.3
2022-12-31T01:55:52.003Z,996.26
2022-12-31T01:56:32.505Z,996.17
2022-12-31T01:57:12.988Z,996.21
2022-12-31T01:57:53.508Z,996.24
2022-12-31T01:58:34.022Z,996.05
2022-12-31T01:59:14.517Z,996.23
2022-12-31T01:59:54.995Z,996.19
2022-12-31T02:00:35.524Z,996.35
2022-12-31T02:01:16.119Z,996.17
2022-12-31T02:01:56.647Z,996.29
2022-12-31T02:02:37.125Z,996.23
2022-12-31T02:03:17.595Z,996.25
2022-12-31T02:03:57.993Z,996.28
2022-12-31T02:04:38.492Z,996.37
2022-12-31T02:05:59.500Z,996.24
2022-12-31T02:06:39.977Z,996.33
2022-12-31T02:07:20.477Z,996.42
2022-12-31T02:08:00.954Z,996.17
2022-12-31T02:08:42.246Z,996.27
2022-12-31T02:09:21.946Z,996.21
2022-12-31T02:10:02.465Z,996.18
2022-12-31T02:10:42.980Z,996.45
2022-12-31T02:11:23.468Z,996.2
2022-12-31T02:12:03.982Z,996.26
2022-12-31T02:12:44.513Z,996.23
2022-12-31T02:13:25.000Z,996.03
2022-12-31T02:14:05.472Z,996.22
2022-12-31T02:14:45.968Z,996.15
2022-12-31T02:15:26.480Z,996.17
2022-12-31T02:16:06.999Z,996.15
2022-12-31T02:16:47.488Z,996.13
2022-12-31T02:17:27.980Z,996.19
2022-12-31T02:18:08.480Z,996.15
2022-12-31T02:18:48.979Z,996.18
2022-12-31T02:19:29.466Z,996.2
2022-12-31T02:20:09.965Z,996.33
2022-12-31T02:20:50.451Z,996.29
2022-12-31T02:21:30.932Z,996.05
2022-12-31T02:22:11.419Z,996.21
2022-12-31T02:22:51.906Z,996.25
2022-12-31T02:23:32.408Z,996.19
2022-12-31T02:24:12.957Z,996.2
2022-12-31T02:24:53.465Z,996.34
2022-12-31T02:25:33.993Z,996.25
2022-12-31T02:26:14.519Z,996.21
2022-12-31T02:26:54.993Z,996.18
2022-12-31T02:27:35.514Z,996.28
2022-12-31T02:28:15.965Z,996.29
2022-12-31T02:28:56.494Z,996.29
2022-12-31T02:29:36.979Z,996.24
2022-12-31T02:30:17.491Z,996.34
2022-12-31T02:30:58.034Z,996.33
2022-12-31T02:31:38.518Z,996.1
2022-12-31T02:32:18.993Z,996.26
2022-12-31T02:33:00.812Z,996.29
2022-12-31T02:33:39.953Z,996.2
2022-12-31T02:34:20.479Z,996.31
2022-12-31T02:35:01.682Z,996.31
2022-12-31T02:35:42.169Z,996.33
2022-12-31T02:37:03.187Z,996.36
2022-12-31T02:37:43.691Z,996.36
2022-12-31T02:38:24.216Z,996.37
2022-12-31T02:39:04.831Z,996.4
2022-12-31T02:39:45.297Z,996.36
2022-12-31T02:40:25.776Z,996.31
2022-12-31T02:41:06.280Z,996.36
2022-12-31T02:41:46.777Z,996.39
2022-12-31T02:42:27.298Z,996.4
2022-12-31T02:43:07.822Z,996.46
2022-12-31T02:43:48.337Z,996.36
2022-12-31T02:44:28.827Z,996.47
2022-12-31T02:45:09.344Z,996.43
2022-12-31T02:45:49.834Z,996.32
2022-12-31T02:46:30.326Z,996.55
2022-12-31T02:47:10.775Z,996.63
2022-12-31T02:47:51.285Z,996.58
2022-12-31T02:48:31.801Z,996.53
2022-12-31T02:49:12.278Z,996.4
2022-12-31T02:49:52.791Z,996.47
2022-12-31T02:50:33.257Z,996.49
2022-12-31T02:51:13.754Z,996.52
2022-12-31T02:54:27.541Z,996.44
2022-12-31T02:55:08.085Z,996.49
2022-12-31T02:55:48.544Z,996.45
2022-12-31T02:56:29.055Z,996.18
2022-12-31T02:57:09.541Z,996.48
2022-12-31T02:57:50.021Z,996.4
2022-12-31T02:58:30.565Z,996.39
2022-12-31T02:59:11.027Z,996.44
2022-12-31T02:59:51.522Z,996.4
2022-12-31T03:00:32.093Z,996.36
2022-12-31T03:01:12.693Z,996.28
2022-12-31T03:03:40.421Z,996.26
2022-12-31T03:04:20.971Z,996.6
2022-12-31T03:05:01.445Z,996.61
2022-12-31T03:05:41.934Z,996.59
2022-12-31T03:06:22.359Z,996.73
2022-12-31T03:07:02.967Z,996.81
2022-12-31T03:08:23.983Z,996.83
2022-12-31T03:09:04.652Z,996.73
2022-12-31T03:09:45.036Z,996.64
2022-12-31T03:10:25.592Z,996.71
2022-12-31T03:11:06.081Z,996.69
2022-12-31T03:11:46.608Z,996.8
2022-12-31T03:12:27.164Z,996.74
2022-12-31T03:13:07.646Z,996.66
2022-12-31T03:13:48.151Z,996.68
2022-12-31T03:14:28.629Z,996.77
2022-12-31T03:15:09.124Z,996.79
2022-12-31T03:15:49.649Z,996.88
2022-12-31T03:16:30.131Z,996.91
2022-12-31T03:17:10.580Z,996.92
2022-12-31T03:17:51.055Z,996.87
2022-12-31T03:18:31.579Z,996.6
2022-12-31T03:19:12.034Z,996.71
2022-12-31T03:19:52.583Z,996.6
2022-12-31T03:20:33.086Z,996.74
2022-12-31T03:21:13.577Z,996.7
2022-12-31T03:21:54.004Z,996.7
2022-12-31T03:22:34.521Z,996.75
2022-12-31T03:23:15.019Z,996.69
2022-12-31T03:23:55.548Z,996.79
2022-12-31T03:24:35.970Z,996.6
2022-12-31T03:25:16.428Z,996.56
2022-12-31T03:26:37.434Z,996.62
2022-12-31T03:27:17.913Z,996.58
2022-12-31T03:27:58.408Z,996.8
2022-12-31T03:28:38.942Z,996.6
2022-12-31T03:29:19.456Z,996.66
2022-12-31T03:29:59.956Z,996.73
2022-12-31T03:30:40.463Z,996.68
2022-12-31T03:31:20.933Z,996.71
2022-12-31T03:32:01.388Z,996.61
2022-12-31T03:32:41.883Z,996.82
2022-12-31T03:33:22.370Z,996.72
2022-12-31T03:34:02.863Z,996.67
2022-12-31T03:34:43.357Z,996.73
2022-12-31T03:35:23.849Z,996.72
2022-12-31T03:36:04.418Z,996.73
2022-12-31T03:36:44.857Z,996.69
2022-12-31T03:37:25.332Z,996.82
2022-12-31T03:38:05.839Z,996.78
2022-12-31T03:38:49.797Z,996.73
2022-12-31T03:39:26.819Z,996.82
2022-12-31T03:42:25.394Z,996.9
2022-12-31T03:43:06.747Z,996.8
2022-12-31T03:43:47.206Z,996.88
2022-12-31T03:44:27.735Z,996.91
2022-12-31T03:45:08.193Z,996.84
2022-12-31T03:45:48.750Z,996.82
2022-12-31T03:46:29.186Z,996.81
2022-12-31T03:47:09.704Z,996.79
2022-12-31T03:47:50.204Z,996.82
2022-12-31T03:48:30.702Z,996.83
2022-12-31T03:49:11.188Z,996.8
2022-12-31T03:49:51.679Z,996.78
2022-12-31T03:50:32.171Z,996.82
2022-12-31T03:51:12.689Z,996.8
2022-12-31T03:51:53.177Z,996.77
2022-12-31T03:52:33.708Z,996.74
2022-12-31T03:53:14.201Z,996.85
2022-12-31T03:53:54.690Z,996.81
2022-12-31T03:54:35.212Z,996.75
2022-12-31T03:55:15.678Z,996.81
2022-12-31T03:56:36.698Z,996.74
2022-12-31T03:57:17.182Z,996.85
2022-12-31T03:57:57.684Z,996.67
2022-12-31T03:58:38.171Z,996.69
2022-12-31T03:59:18.683Z,996.56
2022-12-31T03:59:59.177Z,996.61
2022-12-31T04:00:39.722Z,996.62
2022-12-31T04:01:20.319Z,996.62
2022-12-31T04:02:00.760Z,996.65
2022-12-31T04:02:41.288Z,996.62
2022-12-31T04:05:39.785Z,996.58
2022-12-31T04:06:20.324Z,996.51
2022-12-31T04:07:00.794Z,996.56
2022-12-31T04:07:41.215Z,996.11
2022-12-31T04:08:21.705Z,996.55
2022-12-31T04:09:02.185Z,996.56
2022-12-31T04:09:42.637Z,996.5
2022-12-31T04:10:23.116Z,996.59
2022-12-31T04:11:03.713Z,996.65
2022-12-31T04:11:44.166Z,996.72
2022-12-31T04:12:24.643Z,996.58
2022-12-31T04:13:05.128Z,996.61
2022-12-31T04:13:45.609Z,996.65
2022-12-31T04:14:26.087Z,996.81
2022-12-31T04:15:06.579Z,996.74
2022-12-31T04:15:47.061Z,996.76
2022-12-31T04:16:27.557Z,996.72
2022-12-31T04:17:08.008Z,996.73
2022-12-31T04:17:48.489Z,996.8
2022-12-31T04:19:09.425Z,996.76
2022-12-31T04:19:49.920Z,996.71
2022-12-31T04:20:30.380Z,996.67
2022-12-31T04:21:10.850Z,996.74
2022-12-31T04:21:51.403Z,996.65
2022-12-31T04:22:31.848Z,996.73
2022-12-31T04:23:12.343Z,996.73
2022-12-31T04:23:52.841Z,996.76
2022-12-31T04:24:33.397Z,996.79
2022-12-31T04:25:13.901Z,996.75
2022-12-31T04:26:34.898Z,996.49
2022-12-31T04:27:15.395Z,996.78
2022-12-31T04:27:55.861Z,996.82
2022-12-31T04:28:36.382Z,996.77
2022-12-31T04:29:16.911Z,996.73
2022-12-31T04:29:57.424Z,996.72
2022-12-31T04:30:37.912Z,996.71
2022-12-31T04:31:18.490Z,996.74
2022-12-31T04:31:58.988Z,996.89
2022-12-31T04:32:39.458Z,996.95
2022-12-31T04:33:19.979Z,996.91
2022-12-31T04:34:00.479Z,996.93
2022-12-31T04:34:40.977Z,997.12
2022-12-31T04:35:21.505Z,997.03
2022-12-31T04:36:02.028Z,997.1
2022-12-31T04:36:42.539Z,996.88
2022-12-31T04:37:23.097Z,996.81
2022-12-31T04:38:03.507Z,997.06
2022-12-31T04:38:43.985Z,996.82
2022-12-31T04:39:24.523Z,997.01
2022-12-31T04:40:06.493Z,996.9
2022-12-31T04:40:45.503Z,996.91
2022-12-31T04:41:26.486Z,996.91
2022-12-31T04:42:07.002Z,997.01
2022-12-31T04:42:47.525Z,996.83
2022-12-31T04:43:28.028Z,997.06
2022-12-31T04:44:08.495Z,996.97
2022-12-31T04:44:48.985Z,997.05
2022-12-31T04:45:29.501Z,996.95
2022-12-31T04:46:10.149Z,996.78
2022-12-31T04:46:50.518Z,997.11
2022-12-31T04:47:31.016Z,997.05
2022-12-31T04:48:11.512Z,997.22
2022-12-31T04:49:32.563Z,996.96
2022-12-31T04:50:13.059Z,997.04
2022-12-31T04:50:53.565Z,997.01
2022-12-31T04:51:34.070Z,996.97
2022-12-31T04:52:14.558Z,996.9
2022-12-31T04:52:55.123Z,997.07
2022-12-31T04:53:35.605Z,996.93
2022-12-31T04:54:16.102Z,996.98
2022-12-31T04:54:56.597Z,997.18
2022-12-31T04:55:37.073Z,997.1
2022-12-31T04:56:17.551Z,997.25
2022-12-31T04:56:58.074Z,997.06
2022-12-31T04:57:38.627Z,996.87
2022-12-31T04:58:19.129Z,997.06
2022-12-31T04:59:40.090Z,996.93
2022-12-31T05:00:20.574Z,997.11
2022-12-31T05:01:01.237Z,997.03
2022-12-31T05:01:41.637Z,996.96
2022-12-31T05:02:22.216Z,997.02
2022-12-31T05:03:02.572Z,997.25
2022-12-31T05:03:43.039Z,997.2
2022-12-31T05:04:23.553Z,997.26
2022-12-31T05:05:04.024Z,997.11
2022-12-31T05:05:44.524Z,997.12
2022-12-31T05:06:24.994Z,996.87
2022-12-31T05:07:05.528Z,997.21
2022-12-31T05:07:46.010Z,997.11
2022-12-31T05:08:26.524Z,997.07
2022-12-31T05:09:07.038Z,997.19
2022-12-31T05:09:47.540Z,997.01
2022-12-31T05:10:28.101Z,996.99
2022-12-31T05:11:08.712Z,997.04
2022-12-31T05:11:49.176Z,997.05
2022-12-31T05:12:29.659Z,996.9
2022-12-31T05:13:10.138Z,997.18
2022-12-31T05:13:50.664Z,996.91
2022-12-31T05:14:31.167Z,997.28
2022-12-31T05:15:11.669Z,997.16
2022-12-31T05:15:52.202Z,997.19
2022-12-31T05:16:32.679Z,997.09
2022-12-31T05:17:13.177Z,997.01
2022-12-31T05:17:53.665Z,996.9
2022-12-31T05:18:34.192Z,996.95
2022-12-31T05:19:14.652Z,996.91
2022-12-31T05:19:55.172Z,997.14
2022-12-31T05:20:35.695Z,997.11
2022-12-31T05:21:16.163Z,996.85
2022-12-31T05:21:56.655Z,996.97
2022-12-31T05:22:37.119Z,997.04
2022-12-31T05:23:17.599Z,997.11
2022-12-31T05:23:58.110Z,996.95
2022-12-31T05:24:38.600Z,996.95
2022-12-31T05:25:19.102Z,996.84
2022-12-31T05:25:59.706Z,996.88
2022-12-31T05:29:13.344Z,997.17
2022-12-31T05:29:53.801Z,997.28
2022-12-31T05:30:34.386Z,997.28
2022-12-31T05:31:14.807Z,997.18
2022-12-31T05:31:55.294Z,997.2
2022-12-31T05:32:35.795Z,997.1
2022-12-31T05:33:16.277Z,997.3
2022-12-31T05:33:56.778Z,997.29
2022-12-31T05:34:37.300Z,997.3
2022-12-31T05:35:17.822Z,997.28
2022-12-31T05:35:58.324Z,997.28
2022-12-31T05:36:38.809Z,997.06
2022-12-31T05:37:19.291Z,997.18
2022-12-31T05:37:59.793Z,997.14
2022-12-31T05:38:40.283Z,996.95
2022-12-31T05:39:20.861Z,997.11
2022-12-31T05:40:01.323Z,996.95
2022-12-31T05:40:41.785Z,997.28
2022-12-31T05:41:22.274Z,997.13
2022-12-31T05:42:02.735Z,997.01
2022-12-31T05:42:43.195Z,997.19
2022-12-31T05:43:23.694Z,997.13
2022-12-31T05:44:44.669Z,997.21
2022-12-31T05:45:30.278Z,997.01
2022-12-31T05:46:05.709Z,997.07
2022-12-31T05:46:46.169Z,997
2022-12-31T05:47:26.688Z,997.08
2022-12-31T05:48:07.180Z,996.68
2022-12-31T05:48:47.694Z,997.09
2022-12-31T05:49:28.173Z,997.19
2022-12-31T05:50:08.647Z,997.06
2022-12-31T05:50:49.159Z,997.05
2022-12-31T05:52:10.151Z,997.35
2022-12-31T06:31:43.424Z,997.63
2022-12-31T06:32:23.845Z,997.74
2022-12-31T06:33:04.347Z,997.99
2022-12-31T06:33:44.880Z,997.75
2022-12-31T06:34:25.340Z,997.79
2022-12-31T06:35:05.851Z,997.26
2022-12-31T06:35:46.336Z,997.87
2022-12-31T06:36:26.833Z,997.8
2022-12-31T06:37:07.310Z,997.89
2022-12-31T06:37:47.800Z,997.81
2022-12-31T06:38:28.296Z,997.92
2022-12-31T06:39:08.793Z,997.86
2022-12-31T06:39:49.853Z,997.99
2022-12-31T06:40:29.839Z,998.1
2022-12-31T06:41:10.314Z,998
2022-12-31T06:41:50.766Z,998.01
2022-12-31T06:42:31.256Z,998.11
2022-12-31T06:43:11.736Z,998.13
2022-12-31T06:43:52.294Z,998.11
2022-12-31T06:44:32.778Z,998.14
2022-12-31T06:45:13.281Z,998.12
2022-12-31T06:45:53.790Z,997.97
2022-12-31T06:46:34.330Z,997.98
2022-12-31T06:47:14.824Z,998.09
2022-12-31T06:48:35.748Z,997.86
2022-12-31T06:49:16.251Z,998.01
2022-12-31T06:49:56.800Z,998.11
2022-12-31T06:50:37.339Z,998.15
2022-12-31T06:51:17.938Z,998.07
2022-12-31T06:51:58.351Z,998.14
2022-12-31T06:52:38.879Z,998.34
2022-12-31T06:53:19.371Z,998.29
2022-12-31T06:53:59.877Z,998.2
2022-12-31T06:54:40.407Z,998.14
2022-12-31T06:55:20.990Z,998.3
2022-12-31T06:56:01.424Z,998.33
2022-12-31T06:56:41.902Z,998.4
2022-12-31T06:57:22.396Z,998.21
2022-12-31T06:58:43.346Z,998.11
2022-12-31T06:59:23.850Z,998.1
2022-12-31T07:00:04.347Z,998.22
2022-12-31T07:00:44.854Z,998.25
2022-12-31T07:01:25.462Z,998.09
2022-12-31T07:02:05.927Z,998.12
2022-12-31T07:02:46.428Z,998.26
2022-12-31T07:04:07.351Z,998.25
2022-12-31T07:04:47.809Z,998.3
2022-12-31T07:05:28.320Z,998.25
2022-12-31T07:06:08.803Z,998.31
2022-12-31T07:06:49.303Z,998.13
2022-12-31T07:07:29.834Z,998.22
2022-12-31T07:08:10.344Z,998.25
2022-12-31T07:08:52.637Z,998.16
2022-12-31T07:09:33.145Z,998.3
2022-12-31T07:10:13.647Z,998.08
2022-12-31T07:10:54.137Z,998.19
2022-12-31T07:11:34.628Z,998.21
2022-12-31T07:12:15.099Z,998.31
2022-12-31T07:12:55.576Z,998.18
2022-12-31T07:13:36.047Z,998.36
2022-12-31T07:14:16.600Z,998.27
2022-12-31T07:14:57.133Z,998.25
2022-12-31T07:15:37.587Z,998.42
2022-12-31T07:16:18.092Z,998.17
2022-12-31T07:16:58.696Z,998.22
2022-12-31T07:17:39.106Z,998.26
2022-12-31T07:18:19.597Z,998.26
2022-12-31T07:19:00.133Z,998.09
2022-12-31T07:19:40.599Z,998.36
2022-12-31T07:20:21.106Z,998.33
2022-12-31T07:21:01.606Z,998.36
2022-12-31T07:21:42.097Z,998.34
2022-12-31T07:22:22.600Z,998.29
2022-12-31T07:23:03.119Z,998.4
2022-12-31T07:23:43.610Z,998.36
2022-12-31T07:25:04.570Z,998.35
2022-12-31T07:25:45.056Z,998.37
2022-12-31T07:26:25.547Z,998.41
2022-12-31T07:27:06.106Z,998.34
2022-12-31T07:27:46.530Z,998.31
2022-12-31T07:28:27.045Z,998.48
2022-12-31T07:29:07.557Z,998.4
2022-12-31T07:29:48.030Z,998.41
2022-12-31T07:30:28.515Z,998.51
2022-12-31T07:31:09.004Z,998.49
2022-12-31T07:31:49.461Z,998.43
2022-12-31T07:32:29.948Z,998.55
2022-12-31T07:33:10.451Z,998.57
2022-12-31T07:33:50.943Z,998.53
2022-12-31T07:34:31.488Z,998.52
2022-12-31T07:35:11.944Z,998.51
2022-12-31T07:35:53.384Z,998.49
2022-12-31T07:36:33.018Z,998.45
2022-12-31T07:37:54.018Z,998.56
2022-12-31T07:38:34.495Z,998.47
2022-12-31T07:39:14.983Z,998.56
2022-12-31T07:39:55.494Z,998.57
2022-12-31T07:40:35.963Z,998.23
2022-12-31T07:41:16.430Z,998.55
2022-12-31T07:41:56.911Z,998.57
2022-12-31T07:42:37.404Z,998.42
2022-12-31T07:43:17.877Z,998.5
2022-12-31T07:43:58.397Z,998.4
2022-12-31T07:44:38.917Z,998.52
2022-12-31T07:45:19.414Z,998.38
2022-12-31T07:45:59.901Z,998.58
2022-12-31T07:46:40.529Z,998.66
2022-12-31T07:47:20.955Z,998.63
2022-12-31T07:48:02.858Z,998.44
2022-12-31T07:48:41.974Z,998.61
2022-12-31T07:49:22.530Z,998.2
2022-12-31T07:52:56.487Z,998.42
2022-12-31T07:53:37.046Z,998.47
2022-12-31T07:54:17.673Z,998.62
2022-12-31T07:54:58.182Z,998.69
2022-12-31T07:55:38.629Z,998.36
2022-12-31T07:56:19.129Z,998.46
2022-12-31T07:56:59.645Z,998.52
2022-12-31T07:57:40.120Z,998.6
2022-12-31T07:58:20.628Z,998.46
2022-12-31T07:59:01.131Z,998.56
2022-12-31T07:59:41.599Z,998.53
2022-12-31T08:00:22.098Z,998.62
2022-12-31T08:01:02.688Z,998.6
2022-12-31T08:01:43.310Z,998.6
2022-12-31T08:02:23.753Z,998.74
2022-12-31T08:03:04.203Z,998.57
2022-12-31T08:03:44.670Z,998.44
2022-12-31T08:04:25.170Z,998.55
2022-12-31T08:05:05.729Z,998.63
2022-12-31T08:05:46.196Z,998.54
2022-12-31T08:06:26.684Z,998.69
2022-12-31T08:07:07.249Z,998.57
2022-12-31T08:07:47.725Z,998.7
2022-12-31T08:08:28.245Z,998.67
2022-12-31T08:09:08.714Z,998.62
2022-12-31T08:09:49.213Z,998.76
2022-12-31T08:10:29.723Z,998.76
2022-12-31T08:11:10.175Z,998.68
2022-12-31T08:11:50.669Z,998.78
2022-12-31T08:12:31.153Z,998.76
2022-12-31T08:13:52.146Z,998.66
2022-12-31T08:14:32.668Z,998.69
2022-12-31T08:15:13.170Z,998.72
2022-12-31T08:15:53.696Z,998.86
2022-12-31T08:16:34.183Z,998.8
2022-12-31T08:17:14.655Z,998.8
2022-12-31T08:17:55.111Z,998.73
2022-12-31T08:18:35.603Z,998.83
2022-12-31T08:19:16.072Z,998.87
2022-12-31T08:19:56.619Z,998.9
2022-12-31T08:20:37.120Z,998.73
2022-12-31T08:21:17.582Z,998.88
2022-12-31T08:21:58.083Z,998.83
2022-12-31T08:22:38.586Z,998.83
2022-12-31T08:23:19.101Z,998.76
2022-12-31T08:23:59.624Z,998.88
2022-12-31T08:24:40.126Z,998.79
2022-12-31T08:25:20.601Z,998.86
2022-12-31T08:26:01.109Z,998.85
2022-12-31T08:26:41.610Z,998.83
2022-12-31T08:27:22.107Z,998.94
2022-12-31T08:28:02.632Z,998.85
2022-12-31T08:28:43.104Z,999.11
2022-12-31T08:29:23.607Z,998.95
2022-12-31T08:30:04.102Z,998.86
2022-12-31T08:30:44.598Z,998.79
2022-12-31T08:31:25.106Z,998.81
2022-12-31T08:32:05.627Z,998.88
2022-12-31T08:32:46.097Z,998.85
2022-12-31T08:33:26.613Z,998.92
2022-12-31T08:34:07.109Z,998.84
2022-12-31T08:34:47.588Z,999.01
2022-12-31T08:35:28.093Z,998.87
2022-12-31T08:36:08.632Z,999.03
2022-12-31T08:36:49.108Z,999.11
2022-12-31T08:37:29.617Z,999
2022-12-31T08:38:10.127Z,998.99
2022-12-31T08:38:50.609Z,999.04
2022-12-31T08:39:31.165Z,999.01
2022-12-31T08:40:11.612Z,999.01
2022-12-31T08:40:52.121Z,999.07
2022-12-31T08:41:35.249Z,999
2022-12-31T08:42:13.117Z,999.15
2022-12-31T08:42:53.652Z,999.09
2022-12-31T08:43:34.148Z,999.16
2022-12-31T08:44:14.668Z,999.2
2022-12-31T08:44:55.102Z,999.15
2022-12-31T08:45:35.619Z,999.13
2022-12-31T08:46:16.159Z,999.27
2022-12-31T08:46:56.658Z,999.16
2022-12-31T08:47:38.667Z,999.12
2022-12-31T08:48:17.598Z,999.2
2022-12-31T08:48:58.101Z,999.06
2022-12-31T08:50:19.086Z,999.17
2022-12-31T08:50:59.573Z,999.22
2022-12-31T08:51:40.117Z,999.2
2022-12-31T08:52:20.568Z,999.2
2022-12-31T08:53:01.066Z,999.13
2022-12-31T08:53:41.565Z,999.21
2022-12-31T08:54:22.111Z,999.1
2022-12-31T08:55:02.642Z,998.94
2022-12-31T08:55:43.089Z,999.19
2022-12-31T08:56:23.559Z,999.17
2022-12-31T08:57:44.593Z,999.12
2022-12-31T08:58:25.111Z,999.07
2022-12-31T08:59:05.619Z,999.11
2022-12-31T08:59:46.096Z,999.31
2022-12-31T09:00:26.650Z,999.62
2022-12-31T09:01:07.199Z,999.16
2022-12-31T09:01:47.776Z,999.46
2022-12-31T09:04:00.423Z,999.39
2022-12-31T09:04:40.839Z,999.24
2022-12-31T09:05:21.339Z,999.26
2022-12-31T09:06:01.841Z,999.26
2022-12-31T09:06:42.327Z,999.14
2022-12-31T09:07:22.861Z,999.29
2022-12-31T09:08:03.314Z,999.28
2022-12-31T09:08:43.816Z,999.4
2022-12-31T09:09:24.259Z,999.38
2022-12-31T09:10:04.753Z,999.56
2022-12-31T09:10:45.239Z,999.4
2022-12-31T09:11:25.764Z,999.4
2022-12-31T09:12:06.276Z,999.49
2022-12-31T09:12:46.743Z,1000.16
2022-12-31T09:13:27.235Z,999.31
2022-12-31T09:14:07.737Z,999.46
2022-12-31T09:14:48.254Z,999.52
2022-12-31T09:15:28.822Z,999.68
2022-12-31T09:16:09.344Z,999.63
2022-12-31T09:16:49.843Z,999.71
2022-12-31T09:17:30.281Z,999.66
2022-12-31T09:18:10.787Z,999.67
2022-12-31T09:18:51.327Z,999.7
2022-12-31T09:19:31.812Z,999.8
2022-12-31T09:20:12.297Z,999.81
2022-12-31T09:20:52.787Z,999.72
2022-12-31T09:21:33.279Z,999.54
2022-12-31T09:22:13.795Z,999.44
2022-12-31T09:22:54.243Z,999.66
2022-12-31T09:23:34.715Z,999.56
2022-12-31T09:24:15.211Z,999.71
2022-12-31T09:24:55.733Z,999.77
2022-12-31T09:25:36.202Z,999.75
2022-12-31T09:26:16.728Z,999.79
2022-12-31T09:26:57.263Z,999.75
2022-12-31T09:27:37.783Z,999.79
2022-12-31T09:28:58.776Z,999.84
2022-12-31T09:29:39.298Z,999.86
2022-12-31T09:30:19.751Z,999.95
2022-12-31T09:31:00.243Z,999.94
2022-12-31T09:31:40.751Z,1000.05
2022-12-31T09:32:21.252Z,1000.02
2022-12-31T09:33:01.831Z,999.94
2022-12-31T09:33:42.279Z,999.76
2022-12-31T09:34:22.747Z,1000
2022-12-31T09:35:03.238Z,999.96
2022-12-31T09:35:43.746Z,1000.05
2022-12-31T09:36:24.257Z,999.98
2022-12-31T09:37:04.804Z,1000.09
2022-12-31T09:37:45.348Z,1000.12
2022-12-31T09:38:25.861Z,1000.06
2022-12-31T09:39:06.356Z,1000.16
2022-12-31T09:39:46.869Z,1000.08
2022-12-31T09:40:27.394Z,1000.17
2022-12-31T09:41:07.921Z,1000.07
2022-12-31T09:41:48.428Z,1000.08
2022-12-31T09:42:28.911Z,1000.07
2022-12-31T09:43:09.420Z,1000.16
2022-12-31T09:46:08.542Z,1000.25
2022-12-31T09:46:49.028Z,1000.19
2022-12-31T09:47:29.471Z,1000.15
2022-12-31T09:48:09.956Z,1000.02
2022-12-31T09:48:50.448Z,1000.22
2022-12-31T09:49:30.936Z,1000.04
2022-12-31T09:50:11.452Z,1000.08
2022-12-31T09:50:51.928Z,1000.35
2022-12-31T09:51:32.463Z,1000.36
2022-12-31T09:52:13.028Z,1000.3
2022-12-31T09:52:53.475Z,1000.36
2022-12-31T09:53:34.058Z,999.79
2022-12-31T09:54:14.511Z,1000.27
2022-12-31T09:54:55.007Z,1000.35
2022-12-31T09:55:35.487Z,1000.25
2022-12-31T09:56:15.965Z,1000.49
2022-12-31T09:56:59.091Z,1000.41
2022-12-31T09:57:36.959Z,1000.38
2022-12-31T09:58:17.484Z,1000.4
2022-12-31T09:58:57.953Z,1000.39
2022-12-31T09:59:38.447Z,1000.43
2022-12-31T10:00:19.085Z,1000.42
2022-12-31T10:00:59.618Z,1000.34
2022-12-31T10:01:40.035Z,1000.46
2022-12-31T10:02:20.573Z,1000.44
2022-12-31T10:03:00.948Z,1000.49
2022-12-31T10:03:41.371Z,1000.53
2022-12-31T10:04:23.357Z,1000.39
2022-12-31T10:05:03.096Z,1000.46
2022-12-31T10:05:43.616Z,1000.55
2022-12-31T10:06:24.100Z,1000.48
2022-12-31T10:07:04.698Z,1000.19
2022-12-31T10:07:50.503Z,1000.33
2022-12-31T10:08:25.718Z,1000.47
2022-12-31T10:09:06.245Z,1000.39
2022-12-31T10:09:46.730Z,1000.48